Time;durP1;ratioP1;P1;durP2;ratioP2;P2;SDS_P1;SDS_P2;PMS_P1;PMS_P2;Temp;Humidity;BMP_temperature;BMP_pressure;BME280_temperature;BME280_humidity;BME280_pressure;Samples;Min_cycle;Max_cycle;Signal;HPM_P1;HPM_P2
2022/05/12 11:34:56;;;;;;;16.27;15.57;;;;;;;-141.02;42.56;81187.88;5172458;27;21064;-69
2022/05/12 11:37:31;;;;;;;15.98;15.30;;;;;;;-141.02;43.47;81242.22;5171879;27;20298;-68
2022/05/12 11:40:00;;;;;;;16.20;15.50;;;;;;;-141.02;45.08;81222.81;5172072;27;20183;-68
2022/05/12 11:42:28;;;;;;;16.08;15.38;;;;;;;-141.02;41.79;81065.56;5171562;27;20659;-69
2022/05/12 11:44:59;;;;;;;16.20;15.50;;;;;;;-141.02;42.35;81046.13;5171599;27;20669;-69
2022/05/12 11:47:58;;;;;;;16.33;15.63;;;;;;;-141.02;42.16;81147.09;5171994;27;20565;-68
2022/05/12 11:50:49;;;;;;;17.30;16.35;;;;;;;-141.02;42.46;81185.94;5171865;27;20191;-70
2022/05/12 11:53:19;;;;;;;16.58;15.88;;;;;;;-141.02;43.68;81217.00;5171830;27;20333;-69
2022/05/12 11:56:06;;;;;;;16.05;15.38;;;;;;;-141.02;42.31;81195.63;5171729;27;20191;-69
2022/05/12 11:58:40;;;;;;;16.35;15.75;;;;;;;-141.02;42.78;81112.16;5171354;27;20187;-68
2022/05/12 12:01:10;;;;;;;16.80;16.10;;;;;;;-141.02;40.94;81096.63;5171309;27;20644;-69
2022/05/12 12:03:59;;;;;;;16.88;16.17;;;;;;;-141.02;41.04;81053.91;5171135;27;20227;-70
2022/05/12 12:06:41;;;;;;;16.35;15.75;;;;;;;-141.02;41.83;80991.78;5171541;27;20183;-68
2022/05/12 12:09:52;;;;;;;16.83;16.13;;;;;;;-141.02;39.48;80931.59;5171129;27;20271;-70
2022/05/12 12:12:55;;;;;;;16.70;16.00;;;;;;;-141.02;40.64;80933.53;5171413;27;20183;-70
2022/05/12 12:15:45;;;;;;;16.27;15.68;;;;;;;-141.02;40.29;80817.06;5170977;27;20845;-68
2022/05/12 12:18:57;;;;;;;16.95;16.25;;;;;;;-141.02;41.07;80890.84;5170884;27;20653;-69
2022/05/12 12:21:37;;;;;;;17.15;16.45;;;;;;;-141.02;39.49;80832.59;5171195;27;20187;-70
2022/05/12 12:24:22;;;;;;;17.77;17.05;;;;;;;-141.02;39.99;80832.59;5171097;27;20215;-69
2022/05/12 12:26:54;;;;;;;17.30;16.60;;;;;;;-141.02;40.98;80859.78;5170819;27;20561;-68
2022/05/12 12:29:39;;;;;;;17.00;16.30;;;;;;;-141.02;40.26;80840.34;5171079;27;20267;-70
2022/05/12 12:32:28;;;;;;;17.13;16.42;;;;;;;-141.02;41.27;80838.41;5171051;27;20243;-69
2022/05/12 12:34:56;;;;;;;16.38;15.77;;;;;;;-141.02;40.25;80671.47;5162083;27;20196;-69
2022/05/12 12:37:41;;;;;;;16.65;15.98;;;;;;;-141.02;40.11;80772.41;5156728;27;20201;-69
2022/05/12 12:40:40;;;;;;;16.95;16.25;;;;;;;-141.02;39.88;80739.41;5157009;27;20184;-68
2022/05/12 12:43:19;;;;;;;16.73;16.08;;;;;;;-141.02;40.80;80739.41;5156469;27;20768;-72
2022/05/12 12:45:49;;;;;;;16.67;15.98;;;;;;;-141.02;40.15;80688.94;5156886;27;20248;-69
2022/05/12 12:48:20;;;;;;;17.17;16.48;;;;;;;-141.02;39.97;80696.69;5156837;27;20248;-68
2022/05/12 12:50:51;;;;;;;17.30;16.60;;;;;;;-141.02;40.03;80690.88;5156453;27;20180;-68
2022/05/12 12:56:35;;;;;;;16.85;16.15;;;;;;;-141.02;38.62;80560.81;5156449;27;20556;-68
2022/05/12 12:59:07;;;;;;;16.90;16.20;;;;;;;-141.02;38.88;80457.94;5156251;27;20608;-67
2022/05/12 13:01:45;;;;;;;17.35;16.65;;;;;;;-141.02;39.96;80516.16;5156580;27;20184;-70
2022/05/12 13:04:14;;;;;;;16.85;16.15;;;;;;;-141.02;39.74;80580.22;5156417;27;20318;-79
2022/05/12 13:06:41;;;;;;;16.70;16.00;;;;;;;-141.02;39.66;80584.13;5156141;27;20286;-70
2022/05/12 13:09:10;;;;;;;16.80;16.10;;;;;;;-141.02;39.39;80591.88;5156059;27;20278;-71
2022/05/12 13:11:40;;;;;;;17.10;16.40;;;;;;;-141.02;39.36;80586.06;5156854;27;20195;-71
2022/05/12 13:14:11;;;;;;;17.15;16.45;;;;;;;-141.02;38.36;80496.75;5156242;27;20191;-69
2022/05/12 13:16:40;;;;;;;16.83;16.13;;;;;;;-141.02;38.26;80481.22;5156016;27;20215;-69
2022/05/12 13:19:09;;;;;;;17.27;16.58;;;;;;;-141.02;38.24;80423.00;5156178;27;20588;-69
2022/05/12 13:21:42;;;;;;;17.30;16.60;;;;;;;-141.02;38.63;80421.06;5156171;27;20199;-69
2022/05/12 13:24:14;;;;;;;16.83;16.13;;;;;;;-141.02;38.45;80357.00;5156106;27;20260;-69
2022/05/12 13:26:44;;;;;;;17.10;16.40;;;;;;;-141.02;37.71;80269.66;5155814;27;20632;-69
2022/05/12 13:29:19;;;;;;;17.17;16.48;;;;;;;-141.02;37.55;80242.47;5156572;27;20195;-69
2022/05/12 13:31:55;;;;;;;17.27;16.58;;;;;;;-141.02;39.04;80341.47;5156008;27;20211;-69
2022/05/12 13:34:27;;;;;;;17.52;16.83;;;;;;;-141.02;37.94;80277.41;5155443;27;20702;-69
2022/05/12 13:36:58;;;;;;;18.70;17.90;;;;;;;-141.02;38.68;80312.38;5155531;27;20245;-69
2022/05/12 13:39:50;;;;;;;17.45;16.75;;;;;;;-141.02;38.51;80289.06;5155565;27;20575;-68
2022/05/12 13:42:21;;;;;;;16.95;16.25;;;;;;;-141.02;37.92;80207.53;5140599;27;20187;-69
2022/05/12 13:44:52;;;;;;;17.50;16.80;;;;;;;-141.02;37.94;80168.72;5155633;27;20303;-68
2022/05/12 13:47:34;;;;;;;17.60;16.90;;;;;;;-141.02;37.84;80238.59;5154729;27;20192;-69
2022/05/12 13:50:04;;;;;;;17.02;16.33;;;;;;;-141.02;38.55;80133.78;5155595;27;20179;-68
2022/05/12 13:52:41;;;;;;;16.90;16.20;;;;;;;-141.02;38.25;80145.44;5155193;27;20196;-68
2022/05/12 13:55:19;;;;;;;17.45;16.75;;;;;;;-141.02;37.87;80149.31;5155243;27;20656;-68
2022/05/12 13:57:49;;;;;;;17.58;16.88;;;;;;;-141.02;37.76;80075.56;5155060;27;20596;-69
2022/05/12 14:00:35;;;;;;;17.65;16.85;;;;;;;-141.02;39.07;80106.63;5155373;27;20191;-70
2022/05/12 14:03:20;;;;;;;17.80;17.00;;;;;;;-141.02;37.28;80044.50;5155263;27;20257;-68
2022/05/12 14:05:49;;;;;;;17.20;16.50;;;;;;;-141.02;37.71;79990.16;5155822;27;20275;-67
2022/05/12 14:08:26;;;;;;;16.73;16.02;;;;;;;-141.02;37.82;80021.22;5155187;27;20195;-69
2022/05/12 14:11:09;;;;;;;16.60;15.90;;;;;;;-141.02;38.23;80050.34;5155231;27;20209;-70
2022/05/12 14:19:21;;;;;;;16.70;16.00;;;;;;;-141.02;39.90;80199.78;5154808;27;20265;-70
2022/05/12 14:21:51;;;;;;;16.55;15.85;;;;;;;-141.02;39.33;80151.25;5154987;27;20183;-69
2022/05/12 14:24:20;;;;;;;16.60;15.90;;;;;;;-141.02;39.83;80238.59;5155749;27;20310;-69
2022/05/12 14:26:48;;;;;;;16.35;15.65;;;;;;;-141.02;100.00;80172.59;5154595;27;20196;-69
2022/05/12 14:29:16;;;;;;;16.30;15.60;;;;;;;-141.02;39.24;80188.13;5154768;27;20204;-69
2022/05/12 14:31:47;;;;;;;16.77;16.08;;;;;;;-141.02;38.92;80120.19;5154429;27;20198;-69
2022/05/12 14:34:16;;;;;;;16.80;16.10;;;;;;;-141.02;38.48;80085.28;5154342;27;20314;-69
2022/05/12 14:36:43;;;;;;;17.20;16.50;;;;;;;-141.02;40.10;80213.38;5154629;27;20219;-69
2022/05/12 14:39:10;;;;;;;16.90;16.20;;;;;;;-141.02;39.59;80254.13;5154656;27;20188;-69
2022/05/12 14:41:37;;;;;;;73.45;68.72;;;;;;;-141.02;39.91;80265.78;5154585;27;20270;-69
2022/05/12 14:44:06;;;;;;;16.67;15.98;;;;;;;-141.02;40.96;80322.06;5154114;27;20582;-68
2022/05/12 14:46:39;;;;;;;16.77;16.08;;;;;;;-141.02;38.73;80164.84;5154184;27;20283;-73
2022/05/12 14:49:08;;;;;;;16.70;16.00;;;;;;;-141.02;39.64;80207.53;5154526;27;20276;-68
2022/05/12 14:51:37;;;;;;;16.77;16.08;;;;;;;-141.02;39.64;80207.53;5154093;27;20579;-69
2022/05/12 14:54:04;;;;;;;16.92;16.23;;;;;;;-141.02;41.19;80355.06;5154088;27;20195;-71
2022/05/12 14:56:31;;;;;;;17.02;16.33;;;;;;;-141.02;39.54;80230.84;5154364;27;20198;-68
2022/05/12 14:58:58;;;;;;;17.02;16.33;;;;;;;-141.02;39.25;80188.13;5154061;27;20195;-69
2022/05/12 15:01:26;;;;;;;17.10;16.40;;;;;;;-141.02;39.63;80211.44;5154235;27;20194;-69
2022/05/12 15:03:58;;;;;;;17.02;16.33;;;;;;;-141.02;40.25;80304.59;5153800;27;20216;-68
2022/05/12 15:06:29;;;;;;;16.90;16.20;;;;;;;-141.02;40.24;80324.00;5153974;27;20184;-70
2022/05/12 15:08:56;;;;;;;16.95;16.25;;;;;;;-141.02;40.06;80273.53;5153829;27;20556;-69
2022/05/12 15:11:23;;;;;;;17.02;16.33;;;;;;;-141.02;39.94;80265.78;5154181;27;20191;-69
2022/05/12 15:13:50;;;;;;;17.08;16.38;;;;;;;-141.02;39.15;80170.66;5154146;27;20235;-69
2022/05/12 15:16:19;;;;;;;16.85;16.15;;;;;;;-141.02;39.21;80126.03;5154105;27;20618;-69
2022/05/12 15:18:46;;;;;;;17.42;16.63;;;;;;;-141.02;38.35;80056.16;5154088;27;20256;-70
2022/05/12 15:21:13;;;;;;;16.75;16.05;;;;;;;-141.02;39.42;80151.25;5154002;27;20219;-70
2022/05/12 15:23:41;;;;;;;17.50;16.70;;;;;;;-141.02;39.34;80153.19;5153959;27;20271;-70
2022/05/12 15:26:11;;;;;;;17.52;16.77;;;;;;;-141.02;39.23;80168.72;5153735;27;20196;-69
2022/05/12 15:28:39;;;;;;;17.45;16.75;;;;;;;-141.02;39.16;80151.25;5153726;27;20679;-70
2022/05/12 15:31:06;;;;;;;17.55;16.85;;;;;;;-141.02;39.90;80211.44;5153928;27;20238;-70
2022/05/12 15:33:34;;;;;;;17.67;16.88;;;;;;;-141.02;39.63;80178.44;5153405;27;20720;-70
2022/05/12 15:36:01;;;;;;;17.08;16.38;;;;;;;-141.02;40.21;80226.97;5153910;27;20223;-70
2022/05/12 15:38:29;;;;;;;17.10;16.40;;;;;;;-141.02;39.88;80236.66;5153911;27;20750;-70
2022/05/12 15:40:58;;;;;;;17.30;16.50;;;;;;;-141.02;39.65;80168.72;5153556;27;20252;-69
2022/05/12 15:43:25;;;;;;;16.95;16.25;;;;;;;-141.02;39.73;80118.25;5153454;27;20573;-70
2022/05/12 15:45:53;;;;;;;17.25;16.55;;;;;;;-141.02;39.74;80250.25;5153494;27;20231;-70
2022/05/12 15:48:22;;;;;;;16.85;16.15;;;;;;;-141.02;38.90;80131.84;5153498;27;20196;-70
2022/05/12 15:50:51;;;;;;;17.40;16.60;;;;;;;-141.02;38.87;80091.09;5153740;27;20270;-70
2022/05/12 15:53:19;;;;;;;17.67;16.88;;;;;;;-141.02;39.88;80226.97;5153380;27;20199;-70
2022/05/12 15:55:47;;;;;;;17.05;16.35;;;;;;;-141.02;39.94;80273.53;5153661;27;20633;-70
2022/05/12 15:58:16;;;;;;;17.38;16.58;;;;;;;-141.02;40.29;80236.66;5153365;27;20202;-70
2022/05/12 16:00:45;;;;;;;17.35;16.55;;;;;;;-141.02;38.89;80098.84;5153723;27;20268;-70
2022/05/12 16:03:14;;;;;;;17.42;16.63;;;;;;;-141.02;38.12;80025.09;5153648;27;20200;-70
2022/05/12 16:05:43;;;;;;;17.42;16.63;;;;;;;-141.02;38.02;80110.50;5153274;27;20227;-70
2022/05/12 16:08:10;;;;;;;17.30;16.50;;;;;;;-141.02;38.53;80089.16;5153586;27;20283;-70
2022/05/12 16:10:41;;;;;;;17.25;16.45;;;;;;;-141.02;38.73;80106.63;5156089;27;20196;-70
2022/05/12 16:13:08;;;;;;;17.35;16.55;;;;;;;-141.02;40.40;80292.94;5157166;27;20188;-69
2022/05/12 16:15:37;;;;;;;16.95;16.15;;;;;;;-141.02;40.59;80308.47;5157089;27;20231;-70
2022/05/12 16:18:05;;;;;;;16.73;15.93;;;;;;;-141.02;41.47;80355.06;5157016;27;20653;-70
2022/05/12 16:20:33;;;;;;;16.92;16.13;;;;;;;-141.02;41.21;80320.13;5157374;27;20249;-70
2022/05/12 16:23:00;;;;;;;16.90;16.10;;;;;;;-141.02;41.21;80310.41;5157319;27;20224;-70
2022/05/12 16:25:27;;;;;;;16.73;15.93;;;;;;;-141.02;41.98;80413.28;5156849;27;20310;-70
2022/05/12 16:27:58;;;;;;;16.95;16.15;;;;;;;-141.02;41.42;80378.34;5156922;27;20198;-70
2022/05/12 16:30:26;;;;;;;16.95;16.15;;;;;;;-141.02;41.96;80434.66;5156815;27;20187;-70
2022/05/12 16:32:58;;;;;;;17.05;16.25;;;;;;;-141.02;41.23;80393.88;5156855;27;20231;-70
2022/05/12 16:35:26;;;;;;;16.73;15.93;;;;;;;-141.02;42.75;80529.75;5156758;27;20646;-70
2022/05/12 16:37:54;;;;;;;16.45;15.75;;;;;;;-141.02;43.75;80624.88;5157016;27;20192;-70
2022/05/12 16:40:22;;;;;;;16.45;15.75;;;;;;;-141.02;44.75;80708.34;5156683;27;20196;-70
2022/05/12 16:42:50;;;;;;;16.65;15.88;;;;;;;-141.02;45.71;80786.00;5156903;27;20192;-70
2022/05/12 16:45:18;;;;;;;16.90;16.10;;;;;;;-141.02;46.54;80824.81;5156501;27;20669;-70
2022/05/12 16:47:45;;;;;;;16.92;16.13;;;;;;;-141.02;46.65;80758.81;5156468;27;20239;-70
2022/05/12 16:50:14;;;;;;;16.73;15.93;;;;;;;-141.02;46.99;80805.41;5156483;27;20199;-70
2022/05/12 16:52:41;;;;;;;16.60;15.88;;;;;;;-141.02;47.14;80921.91;5156682;27;20299;-70
2022/05/12 16:55:09;;;;;;;16.05;15.35;;;;;;;-141.02;47.68;80982.06;5156669;27;20223;-70
2022/05/12 16:57:38;;;;;;;16.42;15.73;;;;;;;-141.02;47.98;80987.91;5156585;27;20198;-70
2022/05/12 17:00:06;;;;;;;16.50;15.80;;;;;;;-141.02;47.83;81003.44;5156611;27;20214;-69
2022/05/12 17:02:35;;;;;;;16.60;15.90;;;;;;;-141.02;48.27;81024.78;5156214;27;20238;-70
2022/05/12 17:05:02;;;;;;;16.58;15.88;;;;;;;-141.02;48.73;81075.25;5156036;27;20224;-78
2022/05/12 17:07:30;;;;;;;16.10;15.40;;;;;;;-141.02;48.99;81112.16;5156431;27;20275;-70
2022/05/12 17:09:58;;;;;;;16.55;15.82;;;;;;;-141.02;49.19;81119.91;5156028;27;20649;-69
2022/05/12 17:12:28;;;;;;;16.75;15.98;;;;;;;-141.02;49.52;81168.44;5156361;27;20195;-69
2022/05/12 17:14:57;;;;;;;16.42;15.73;;;;;;;-141.02;49.63;81127.69;5156347;27;20180;-70
2022/05/12 17:17:24;;;;;;;17.20;16.40;;;;;;;-141.02;49.98;81160.69;5156216;27;20200;-70
2022/05/12 17:19:51;;;;;;;17.10;16.33;;;;;;;-141.02;50.50;81147.09;5155814;27;20231;-70
2022/05/12 17:22:18;;;;;;;17.25;16.45;;;;;;;-141.02;51.11;81209.22;5156142;27;20283;-70
2022/05/12 17:24:47;;;;;;;16.65;15.85;;;;;;;-141.02;50.77;81209.22;5155715;27;20223;-69
2022/05/12 17:27:15;;;;;;;17.35;16.55;;;;;;;-141.02;50.79;81209.22;5156001;27;20203;-69
2022/05/12 17:29:42;;;;;;;17.27;16.48;;;;;;;-141.02;50.92;81236.41;5156058;27;20198;-69
2022/05/12 17:32:10;;;;;;;17.52;16.73;;;;;;;-141.02;51.42;81230.59;5155643;27;20196;-69
2022/05/12 17:34:37;;;;;;;17.00;16.23;;;;;;;-141.02;51.26;81257.75;5155461;27;20728;-69
2022/05/12 17:37:05;;;;;;;17.23;16.42;;;;;;;-141.02;51.04;81261.66;5155887;27;20244;-70
2022/05/12 17:39:32;;;;;;;17.00;16.20;;;;;;;-141.02;51.43;81255.81;5155803;27;20263;-69
2022/05/12 17:42:00;;;;;;;16.90;16.20;;;;;;;-141.02;51.67;81273.28;5155495;27;20195;-69
2022/05/12 17:44:31;;;;;;;17.40;16.60;;;;;;;-141.02;51.85;81259.69;5155671;27;20224;-69
2022/05/12 17:46:58;;;;;;;17.58;16.77;;;;;;;-141.02;51.68;81277.19;5156555;27;20194;-69
2022/05/12 17:49:25;;;;;;;17.27;16.48;;;;;;;-141.02;52.12;81296.59;5155588;27;20191;-69
2022/05/12 17:51:52;;;;;;;17.10;16.30;;;;;;;-141.02;52.01;81317.94;5155264;27;20600;-69
2022/05/12 17:54:19;;;;;;;16.60;15.90;;;;;;;-141.02;52.29;81333.47;5155517;27;20282;-69
2022/05/12 17:56:47;;;;;;;16.92;16.23;;;;;;;-141.02;52.11;81187.88;5155437;27;20280;-68
2022/05/12 17:59:15;;;;;;;16.45;15.75;;;;;;;-141.02;52.70;81360.66;5155181;27;20295;-70
2022/05/12 18:01:43;;;;;;;16.83;16.08;;;;;;;-141.02;52.82;81370.38;5155378;27;20199;-78
2022/05/12 18:04:10;;;;;;;16.70;16.00;;;;;;;-141.02;53.21;81352.91;5155234;27;20264;-70
2022/05/12 18:06:37;;;;;;;16.27;15.57;;;;;;;-141.02;53.41;81349.00;5154969;27;20227;-70
2022/05/12 18:09:04;;;;;;;16.95;16.15;;;;;;;-141.02;53.89;81418.91;5155213;27;20275;-70
2022/05/12 18:11:32;;;;;;;17.17;16.40;;;;;;;-141.02;53.85;81438.34;5154847;27;20275;-70
2022/05/12 18:13:59;;;;;;;16.55;15.85;;;;;;;-141.02;54.07;81415.03;5154795;27;20685;-70
2022/05/12 18:16:29;;;;;;;16.65;15.95;;;;;;;-141.02;55.03;81294.66;5154734;27;20564;-69
2022/05/12 18:18:56;;;;;;;16.83;16.13;;;;;;;-141.02;55.14;81481.06;5154742;27;20656;-70
2022/05/12 18:21:23;;;;;;;16.95;16.23;;;;;;;-141.02;55.78;81502.41;5154980;27;20191;-69
2022/05/12 18:23:50;;;;;;;17.30;16.50;;;;;;;-141.02;55.93;81500.47;5154934;27;20188;-70
2022/05/12 18:26:17;;;;;;;17.33;16.63;;;;;;;-141.02;56.45;81496.59;5154762;27;20229;-70
2022/05/12 18:28:44;;;;;;;17.60;16.80;;;;;;;-141.02;55.96;81465.50;5154843;27;20295;-70
2022/05/12 18:31:11;;;;;;;17.88;17.08;;;;;;;-141.02;55.96;81465.50;5154828;27;20278;-69
2022/05/12 18:33:40;;;;;;;17.60;16.80;;;;;;;-141.02;56.69;81506.28;5153848;27;20323;-70
2022/05/12 18:36:08;;;;;;;17.40;16.70;;;;;;;-141.02;100.00;55845.25;5154412;27;20199;-70
2022/05/12 18:38:36;;;;;;;17.45;16.73;;;;;;;-141.02;57.32;81582.03;5154353;27;20291;-70
2022/05/12 18:41:03;;;;;;;17.38;16.67;;;;;;;-141.02;57.46;81554.84;5154323;27;20282;-70
2022/05/12 18:43:30;;;;;;;17.15;16.45;;;;;;;-141.02;57.86;81523.75;5154238;27;20196;-70
2022/05/12 18:45:57;;;;;;;17.55;16.75;;;;;;;-141.02;58.21;81531.53;5154528;27;20223;-69
2022/05/12 18:48:25;;;;;;;17.33;16.52;;;;;;;-141.02;58.47;81527.66;5154222;27;20195;-70
2022/05/12 18:50:54;;;;;;;17.38;16.58;;;;;;;-141.02;58.74;81578.13;5154123;27;20282;-69
2022/05/12 18:53:21;;;;;;;17.48;16.67;;;;;;;-141.02;58.59;81582.03;5154194;27;20238;-70
2022/05/12 18:55:48;;;;;;;17.60;16.80;;;;;;;-141.02;58.95;81578.13;5154394;27;20305;-69
2022/05/12 18:58:16;;;;;;;17.77;16.98;;;;;;;-141.02;59.66;81519.88;5154057;27;20613;-70
2022/05/12 19:00:43;;;;;;;17.40;16.60;;;;;;;-141.02;60.42;81640.28;5154015;27;20598;-70
2022/05/12 19:03:11;;;;;;;17.48;16.67;;;;;;;-141.02;62.28;81694.63;5153988;27;20657;-70
2022/05/12 19:05:39;;;;;;;17.13;16.42;;;;;;;-141.02;63.48;81737.34;5153830;27;20823;-70
2022/05/12 19:08:08;;;;;;;17.35;16.60;;;;;;;-141.02;65.38;81799.50;5153842;27;20187;-69
2022/05/12 19:10:36;;;;;;;17.73;16.92;;;;;;;-141.02;67.18;81811.16;5154193;27;20195;-70
2022/05/12 19:13:04;;;;;;;17.08;16.27;;;;;;;-141.02;70.89;81869.41;5153809;27;20188;-70
2022/05/12 19:15:32;;;;;;;17.40;16.60;;;;;;;-141.02;74.60;81935.44;5153829;27;20278;-70
2022/05/12 19:18:01;;;;;;;16.95;16.15;;;;;;;-141.02;76.44;81935.44;5153766;27;20191;-70
2022/05/12 19:20:32;;;;;;;17.15;16.35;;;;;;;-141.02;76.48;81947.09;5154041;27;20195;-70
2022/05/12 19:22:59;;;;;;;17.15;16.35;;;;;;;-141.02;75.29;81960.69;5154036;27;20195;-70
2022/05/12 19:25:28;;;;;;;17.23;16.42;;;;;;;-141.02;75.19;81950.97;5153939;27;20231;-71
2022/05/12 19:27:56;;;;;;;17.20;16.40;;;;;;;-141.02;75.29;81945.13;5153680;27;20661;-71
2022/05/12 19:30:26;;;;;;;17.40;16.60;;;;;;;-141.02;76.08;81939.31;5153636;27;20724;-71
2022/05/12 19:32:53;;;;;;;17.73;16.92;;;;;;;-141.02;75.58;81939.31;5153700;27;20227;-70
2022/05/12 19:35:21;;;;;;;17.63;16.83;;;;;;;-141.02;75.06;81927.66;5153867;27;20227;-71
2022/05/12 19:37:50;;;;;;;17.25;16.55;;;;;;;-141.02;73.28;81962.63;5153592;27;20282;-71
2022/05/12 19:40:19;;;;;;;17.30;16.50;;;;;;;-141.02;72.97;81714.06;5153628;27;20700;-70
2022/05/12 19:42:47;;;;;;;16.70;16.00;;;;;;;-141.02;71.88;81888.81;5153535;27;20195;-71
2022/05/12 19:45:16;;;;;;;16.52;15.82;;;;;;;-141.02;72.75;81881.06;5155781;27;20730;-70
2022/05/12 19:47:44;;;;;;;16.73;16.02;;;;;;;-141.02;70.97;81853.88;5158036;27;20217;-71
2022/05/12 19:50:13;;;;;;;16.75;16.05;;;;;;;-141.02;70.65;81853.88;5157965;27;20206;-70
2022/05/12 19:52:40;;;;;;;16.98;16.27;;;;;;;-141.02;70.86;81890.75;5157877;27;20191;-70
2022/05/12 19:55:09;;;;;;;16.75;16.05;;;;;;;-141.02;70.53;81875.22;5157877;27;20188;-70
2022/05/12 19:57:36;;;;;;;16.95;16.25;;;;;;;-141.02;70.61;81850.00;5157547;27;20231;-70
2022/05/12 20:00:08;;;;;;;16.80;16.05;;;;;;;-141.02;72.96;81916.00;5157473;27;20286;-70
2022/05/12 20:02:35;;;;;;;17.10;16.40;;;;;;;-141.02;76.97;81982.03;5157445;27;20183;-70
2022/05/12 20:05:03;;;;;;;16.70;16.00;;;;;;;-141.02;77.88;81987.88;5157602;27;20573;-70
2022/05/12 20:07:30;;;;;;;17.00;16.30;;;;;;;-141.02;74.49;81935.44;5157308;27;20696;-71
2022/05/12 20:09:57;;;;;;;17.60;16.80;;;;;;;-141.02;74.54;81943.19;5157559;27;20192;-70
2022/05/12 20:12:24;;;;;;;17.08;16.27;;;;;;;-141.02;72.83;81950.97;5157559;27;20194;-70
2022/05/12 20:14:51;;;;;;;16.75;16.05;;;;;;;-141.02;75.10;81927.66;5157161;27;20748;-70
2022/05/12 20:17:20;;;;;;;17.45;16.65;;;;;;;-141.02;78.60;82020.88;5157439;27;20184;-70
2022/05/12 20:19:47;;;;;;;17.08;16.27;;;;;;;-141.02;82.83;82063.59;5157387;27;20234;-70
2022/05/12 20:22:14;;;;;;;16.88;16.17;;;;;;;-141.02;85.30;82079.13;5156995;27;20287;-70
2022/05/12 20:24:42;;;;;;;17.05;16.35;;;;;;;-141.02;83.99;82079.13;5157236;27;20275;-70
2022/05/12 20:27:09;;;;;;;16.65;15.95;;;;;;;-141.02;85.04;82094.66;5156887;27;20665;-70
2022/05/12 20:29:36;;;;;;;16.90;16.10;;;;;;;-141.02;86.35;82117.97;5157179;27;20225;-70
2022/05/12 20:32:04;;;;;;;17.50;16.70;;;;;;;-141.02;82.48;82079.13;5156896;27;20722;-70
2022/05/12 20:34:33;;;;;;;17.20;16.40;;;;;;;-141.02;82.12;82059.72;5156709;27;20227;-70
2022/05/12 20:37:00;;;;;;;16.92;16.13;;;;;;;-141.02;80.89;82048.06;5156735;27;20200;-71
2022/05/12 20:39:27;;;;;;;16.83;16.02;;;;;;;-141.02;81.51;82065.53;5156638;27;20242;-71
2022/05/12 20:41:54;;;;;;;16.88;16.08;;;;;;;-141.02;85.02;82133.50;5156704;27;20191;-70
2022/05/12 20:44:21;;;;;;;16.65;15.90;;;;;;;-141.02;86.63;82114.09;5156670;27;20256;-70
2022/05/12 20:46:48;;;;;;;16.60;15.90;;;;;;;-141.02;87.47;82156.81;5156813;27;20315;-70
2022/05/12 20:49:15;;;;;;;16.58;15.88;;;;;;;-141.02;88.49;82156.81;5156579;27;20231;-70
2022/05/12 20:51:43;;;;;;;16.20;15.50;;;;;;;-141.02;89.31;82184.00;5156743;27;20220;-70
2022/05/12 20:54:10;;;;;;;16.27;15.57;;;;;;;-141.02;87.72;82110.22;5156766;27;20191;-70
2022/05/12 20:56:39;;;;;;;17.10;16.30;;;;;;;-141.02;87.19;82156.81;5155899;27;20741;-70
2022/05/12 20:59:07;;;;;;;16.52;15.82;;;;;;;-141.02;90.42;82164.59;5156654;27;20252;-70
2022/05/12 21:01:35;;;;;;;16.33;15.63;;;;;;;-141.02;90.26;82193.72;5156593;27;20275;-70
2022/05/12 21:04:02;;;;;;;16.35;15.65;;;;;;;-141.02;86.76;82215.06;5156525;27;20188;-70
2022/05/12 21:06:31;;;;;;;17.27;16.48;;;;;;;-141.02;84.72;82172.34;5156445;27;20755;-70
2022/05/12 21:09:02;;;;;;;16.85;16.05;;;;;;;-141.02;86.08;82149.06;5156422;27;20188;-70
2022/05/12 21:11:29;;;;;;;16.52;15.82;;;;;;;-141.02;87.12;82170.41;5156137;27;20688;-70
2022/05/12 21:13:56;;;;;;;16.65;15.90;;;;;;;-141.02;86.61;82117.97;5155994;27;20196;-70
2022/05/12 21:16:23;;;;;;;16.73;15.93;;;;;;;-141.02;86.34;82170.41;5156318;27;20264;-70
2022/05/12 21:18:50;;;;;;;16.88;16.08;;;;;;;-141.02;85.10;82137.41;5155954;27;20230;-71
2022/05/12 21:21:17;;;;;;;17.10;16.30;;;;;;;-141.02;83.89;82145.16;5156194;27;20611;-71
2022/05/12 21:23:46;;;;;;;17.20;16.40;;;;;;;-141.02;84.68;82139.34;5156216;27;20195;-70
2022/05/12 21:26:15;;;;;;;16.98;16.17;;;;;;;-141.02;83.79;82075.25;5155688;27;20224;-70
2022/05/12 21:28:43;;;;;;;16.80;16.00;;;;;;;-141.02;82.96;82141.28;5155800;27;20282;-70
2022/05/12 21:31:11;;;;;;;16.40;15.70;;;;;;;-141.02;85.56;82166.53;5155737;27;20207;-70
2022/05/12 21:33:39;;;;;;;17.10;16.30;;;;;;;-141.02;85.50;82156.81;5155522;27;20723;-71
2022/05/12 21:36:08;;;;;;;16.70;15.98;;;;;;;-141.02;83.71;82176.25;5155632;27;20188;-70
2022/05/12 21:38:35;;;;;;;16.63;15.90;;;;;;;-141.02;84.80;82172.34;5155796;27;20612;-70
2022/05/12 21:41:02;;;;;;;16.50;15.80;;;;;;;-141.02;84.12;82156.81;5155817;27;20232;-70
2022/05/12 21:43:30;;;;;;;16.98;16.17;;;;;;;-141.02;82.23;82156.81;5155711;27;20192;-71
2022/05/12 21:45:57;;;;;;;16.95;16.15;;;;;;;-141.02;83.66;82102.44;5155332;27;20259;-70
2022/05/12 21:48:26;;;;;;;16.92;16.13;;;;;;;-141.02;81.54;82098.56;5156256;27;20187;-70
2022/05/12 21:50:56;;;;;;;16.55;15.77;;;;;;;-141.02;83.32;82152.94;5155346;27;20191;-70
2022/05/12 21:53:25;;;;;;;16.90;16.10;;;;;;;-141.02;84.06;82145.16;5155584;27;20318;-71
2022/05/12 21:55:58;;;;;;;17.15;16.35;;;;;;;-141.02;84.65;82121.84;5155168;27;20625;-70
2022/05/12 22:01:30;;;;;;;17.25;16.45;;;;;;;-141.02;86.28;82178.19;5155802;27;20236;-71
2022/05/12 22:04:00;;;;;;;17.20;16.40;;;;;;;-141.02;86.59;82246.16;5155341;27;20240;-70
2022/05/12 22:06:31;;;;;;;17.52;16.73;;;;;;;-141.02;87.31;82211.19;5154621;27;20318;-71
2022/05/12 22:09:01;;;;;;;18.10;17.30;;;;;;;-141.02;87.79;82234.50;5154834;27;20192;-70
2022/05/12 22:14:10;;;;;;;17.10;16.30;;;;;;;-141.02;86.38;82174.28;5154536;27;20561;-70
2022/05/12 22:16:39;;;;;;;16.98;16.27;;;;;;;-141.02;88.29;82217.03;5155088;27;20195;-71
2022/05/12 22:19:06;;;;;;;17.48;16.67;;;;;;;-141.02;88.91;82218.97;5155030;27;20192;-70
2022/05/12 22:21:33;;;;;;;17.95;17.15;;;;;;;-141.02;91.42;82288.88;5155059;27;20191;-70
2022/05/12 22:24:00;;;;;;;17.63;16.83;;;;;;;-141.02;92.66;82292.75;5154951;27;20191;-70
2022/05/12 22:26:27;;;;;;;18.05;17.25;;;;;;;-141.02;88.54;82271.41;5154486;27;20231;-70
2022/05/12 22:28:54;;;;;;;18.05;17.25;;;;;;;-141.02;86.91;82226.72;5154614;27;20279;-70
2022/05/12 22:31:21;;;;;;;17.77;16.98;;;;;;;-141.02;85.61;82215.06;5154797;27;20191;-70
2022/05/12 22:33:49;;;;;;;17.85;17.05;;;;;;;-141.02;84.05;82246.16;5154418;27;20266;-70
2022/05/12 22:36:17;;;;;;;18.23;17.42;;;;;;;-141.02;84.24;82180.13;5154412;27;20665;-70
2022/05/12 22:38:45;;;;;;;18.10;17.30;;;;;;;-141.02;86.46;82184.00;5154416;27;20657;-70
2022/05/12 22:41:12;;;;;;;18.15;17.35;;;;;;;-141.02;86.54;82203.44;5154343;27;20657;-71
2022/05/12 22:43:40;;;;;;;18.33;17.52;;;;;;;-141.02;87.13;82265.56;5155101;27;20283;-70
2022/05/12 22:46:07;;;;;;;17.75;16.95;;;;;;;-141.02;86.99;82133.50;5154539;27;20245;-70
2022/05/12 22:48:34;;;;;;;17.88;17.08;;;;;;;-141.02;88.88;82253.91;5154220;27;20211;-70
2022/05/12 22:51:05;;;;;;;17.20;16.40;;;;;;;-141.02;90.31;82261.69;5154212;27;20282;-70
2022/05/12 22:53:32;;;;;;;17.17;16.48;;;;;;;-141.02;92.12;82302.47;5154477;27;20219;-71
2022/05/12 22:55:59;;;;;;;17.75;16.95;;;;;;;-141.02;92.87;82302.47;5154416;27;20198;-70
2022/05/12 22:58:26;;;;;;;16.25;15.55;;;;;;;-141.02;93.52;82300.53;5154355;27;20274;-70
2022/05/12 23:00:53;;;;;;;16.40;15.70;;;;;;;-141.02;96.53;82327.72;5154317;27;20271;-70
2022/05/12 23:03:20;;;;;;;15.98;15.27;;;;;;;-141.02;99.20;82401.53;5154286;27;20192;-70